sensor_id;sensor_type;location;lat;lon;timestamp;pressure;altitude;pressure_sealevel;temperature;humidity
11415;BME280;5763;42.714;23.244;2022-11-15T00:01:07;95150.38;;;7.32;69.12
11415;BME280;5763;42.714;23.244;2022-11-15T00:03:34;95157.72;;;7.35;70.18
11415;BME280;5763;42.714;23.244;2022-11-15T00:06:02;95158.47;;;7.36;69.43
11415;BME280;5763;42.714;23.244;2022-11-15T00:08:30;95144.72;;;7.23;71.78
11415;BME280;5763;42.714;23.244;2022-11-15T00:10:58;95153.31;;;7.22;72.28
11415;BME280;5763;42.714;23.244;2022-11-15T00:13:25;95155.81;;;7.32;71.96
11415;BME280;5763;42.714;23.244;2022-11-15T00:15:52;95141.16;;;7.26;71.98
11415;BME280;5763;42.714;23.244;2022-11-15T00:18:19;95137.66;;;7.26;70.88
11415;BME280;5763;42.714;23.244;2022-11-15T00:20:46;95140.94;;;7.17;70.27
11415;BME280;5763;42.714;23.244;2022-11-15T00:23:12;95141.47;;;7.09;70.66
11415;BME280;5763;42.714;23.244;2022-11-15T00:25:40;95132.34;;;7.19;70.51
11415;BME280;5763;42.714;23.244;2022-11-15T00:28:07;95133.16;;;7.19;69.80
11415;BME280;5763;42.714;23.244;2022-11-15T00:30:34;95138.16;;;7.21;69.96
11415;BME280;5763;42.714;23.244;2022-11-15T00:33:05;95132.50;;;7.12;70.93
11415;BME280;5763;42.714;23.244;2022-11-15T00:35:32;95129.97;;;7.01;71.25
11415;BME280;5763;42.714;23.244;2022-11-15T00:37:59;95144.28;;;7.05;71.52
11415;BME280;5763;42.714;23.244;2022-11-15T00:40:26;95143.44;;;7.08;72.11
11415;BME280;5763;42.714;23.244;2022-11-15T00:42:55;95137.56;;;7.10;72.80
11415;BME280;5763;42.714;23.244;2022-11-15T00:45:22;95129.56;;;7.03;72.38
11415;BME280;5763;42.714;23.244;2022-11-15T00:47:48;95128.50;;;6.97;73.28
11415;BME280;5763;42.714;23.244;2022-11-15T00:50:16;95138.84;;;7.05;73.66
11415;BME280;5763;42.714;23.244;2022-11-15T00:52:43;95144.34;;;7.02;73.66
11415;BME280;5763;42.714;23.244;2022-11-15T00:55:13;95126.66;;;6.90;73.89
11415;BME280;5763;42.714;23.244;2022-11-15T00:57:41;95127.94;;;7.05;72.86
11415;BME280;5763;42.714;23.244;2022-11-15T01:00:10;95126.41;;;7.04;71.61
11415;BME280;5763;42.714;23.244;2022-11-15T01:02:37;95115.22;;;6.99;70.29
11415;BME280;5763;42.714;23.244;2022-11-15T01:05:05;95129.00;;;7.11;70.03
11415;BME280;5763;42.714;23.244;2022-11-15T01:07:31;95119.50;;;7.00;70.34
11415;BME280;5763;42.714;23.244;2022-11-15T01:09:58;95111.81;;;6.95;72.34
11415;BME280;5763;42.714;23.244;2022-11-15T01:12:25;95117.66;;;6.93;73.36
11415;BME280;5763;42.714;23.244;2022-11-15T01:14:52;95117.34;;;7.11;73.01
11415;BME280;5763;42.714;23.244;2022-11-15T01:17:20;95127.47;;;7.10;74.25
11415;BME280;5763;42.714;23.244;2022-11-15T01:19:46;95115.47;;;7.08;74.43
11415;BME280;5763;42.714;23.244;2022-11-15T01:22:13;95116.22;;;7.08;74.36
11415;BME280;5763;42.714;23.244;2022-11-15T01:24:40;95112.25;;;7.13;72.81
11415;BME280;5763;42.714;23.244;2022-11-15T01:27:07;95122.50;;;7.05;72.92
11415;BME280;5763;42.714;23.244;2022-11-15T01:29:34;95111.47;;;7.12;74.07
11415;BME280;5763;42.714;23.244;2022-11-15T01:32:00;95114.44;;;7.21;74.45
11415;BME280;5763;42.714;23.244;2022-11-15T01:34:28;95126.03;;;7.25;74.79
11415;BME280;5763;42.714;23.244;2022-11-15T01:36:55;95124.53;;;7.21;74.65
11415;BME280;5763;42.714;23.244;2022-11-15T01:39:22;95101.78;;;7.11;75.40
11415;BME280;5763;42.714;23.244;2022-11-15T01:41:49;95107.56;;;7.13;74.96
11415;BME280;5763;42.714;23.244;2022-11-15T01:44:46;95102.84;;;7.17;74.84
11415;BME280;5763;42.714;23.244;2022-11-15T01:47:16;95111.25;;;7.03;73.67
11415;BME280;5763;42.714;23.244;2022-11-15T01:49:50;95105.00;;;7.06;72.85
11415;BME280;5763;42.714;23.244;2022-11-15T01:52:20;95088.34;;;7.04;72.33
11415;BME280;5763;42.714;23.244;2022-11-15T01:54:51;95099.22;;;7.04;71.72
11415;BME280;5763;42.714;23.244;2022-11-15T01:57:19;95107.84;;;6.99;71.53
11415;BME280;5763;42.714;23.244;2022-11-15T01:59:46;95113.28;;;6.99;71.62
11415;BME280;5763;42.714;23.244;2022-11-15T02:02:13;95102.34;;;7.03;71.15
11415;BME280;5763;42.714;23.244;2022-11-15T02:04:44;95105.94;;;6.96;71.21
11415;BME280;5763;42.714;23.244;2022-11-15T02:07:15;95108.38;;;6.91;71.17
11415;BME280;5763;42.714;23.244;2022-11-15T02:09:43;95098.47;;;6.81;71.43
11415;BME280;5763;42.714;23.244;2022-11-15T02:12:10;95102.66;;;6.85;70.88
11415;BME280;5763;42.714;23.244;2022-11-15T02:14:41;95097.41;;;6.75;71.07
11415;BME280;5763;42.714;23.244;2022-11-15T02:23:09;95104.81;;;6.74;70.54
11415;BME280;5763;42.714;23.244;2022-11-15T02:25:55;95104.66;;;6.81;69.85
11415;BME280;5763;42.714;23.244;2022-11-15T02:28:44;95099.13;;;6.65;70.42
11415;BME280;5763;42.714;23.244;2022-11-15T02:31:18;95092.91;;;6.65;70.09
11415;BME280;5763;42.714;23.244;2022-11-15T02:33:58;95089.03;;;6.66;70.06
11415;BME280;5763;42.714;23.244;2022-11-15T02:36:40;95098.31;;;6.68;69.93
11415;BME280;5763;42.714;23.244;2022-11-15T02:39:11;95085.22;;;6.60;69.63
11415;BME280;5763;42.714;23.244;2022-11-15T02:41:46;95094.88;;;6.64;69.41
11415;BME280;5763;42.714;23.244;2022-11-15T02:44:18;95094.56;;;6.59;69.29
11415;BME280;5763;42.714;23.244;2022-11-15T02:46:51;95083.28;;;6.60;68.92
11415;BME280;5763;42.714;23.244;2022-11-15T02:49:51;95098.53;;;6.54;69.23
11415;BME280;5763;42.714;23.244;2022-11-15T02:52:20;95086.06;;;6.57;68.89
11415;BME280;5763;42.714;23.244;2022-11-15T02:54:53;95096.16;;;6.56;69.30
11415;BME280;5763;42.714;23.244;2022-11-15T02:57:35;95095.50;;;6.49;69.60
11415;BME280;5763;42.714;23.244;2022-11-15T03:00:08;95093.66;;;6.42;69.70
11415;BME280;5763;42.714;23.244;2022-11-15T03:05:41;95099.88;;;6.43;69.55
11415;BME280;5763;42.714;23.244;2022-11-15T03:08:14;95104.31;;;6.56;69.23
11415;BME280;5763;42.714;23.244;2022-11-15T03:10:51;95093.19;;;6.47;69.42
11415;BME280;5763;42.714;23.244;2022-11-15T03:13:26;95094.63;;;6.55;69.49
11415;BME280;5763;42.714;23.244;2022-11-15T03:15:57;95083.75;;;6.55;69.62
11415;BME280;5763;42.714;23.244;2022-11-15T03:18:30;95085.66;;;6.58;70.01
11415;BME280;5763;42.714;23.244;2022-11-15T03:21:01;95090.84;;;6.72;70.06
11415;BME280;5763;42.714;23.244;2022-11-15T03:23:30;95079.53;;;6.74;69.90
11415;BME280;5763;42.714;23.244;2022-11-15T03:25:59;95081.03;;;6.78;70.11
11415;BME280;5763;42.714;23.244;2022-11-15T03:28:32;95090.31;;;6.81;70.24
11415;BME280;5763;42.714;23.244;2022-11-15T03:31:02;95078.34;;;6.75;70.58
11415;BME280;5763;42.714;23.244;2022-11-15T03:33:53;95082.19;;;6.77;70.59
11415;BME280;5763;42.714;23.244;2022-11-15T03:36:23;95068.59;;;6.77;70.76
11415;BME280;5763;42.714;23.244;2022-11-15T03:38:54;95069.63;;;6.87;70.61
11415;BME280;5763;42.714;23.244;2022-11-15T03:41:25;95076.09;;;6.93;70.36
11415;BME280;5763;42.714;23.244;2022-11-15T03:43:58;95060.66;;;6.86;70.82
11415;BME280;5763;42.714;23.244;2022-11-15T03:46:32;95057.31;;;6.98;70.65
11415;BME280;5763;42.714;23.244;2022-11-15T03:49:04;95063.00;;;7.07;70.23
11415;BME280;5763;42.714;23.244;2022-11-15T03:51:34;95061.94;;;7.01;70.53
11415;BME280;5763;42.714;23.244;2022-11-15T03:54:02;95083.63;;;7.05;70.59
11415;BME280;5763;42.714;23.244;2022-11-15T03:56:30;95060.34;;;7.04;71.02
11415;BME280;5763;42.714;23.244;2022-11-15T03:58:57;95059.06;;;7.08;71.21
11415;BME280;5763;42.714;23.244;2022-11-15T04:01:23;95054.06;;;7.07;72.30
11415;BME280;5763;42.714;23.244;2022-11-15T04:03:50;95060.28;;;7.07;73.20
11415;BME280;5763;42.714;23.244;2022-11-15T04:06:17;95060.28;;;7.07;73.51
11415;BME280;5763;42.714;23.244;2022-11-15T04:08:45;95047.78;;;7.10;73.63
11415;BME280;5763;42.714;23.244;2022-11-15T04:11:12;95061.03;;;7.27;73.27
11415;BME280;5763;42.714;23.244;2022-11-15T04:13:39;95060.63;;;7.29;73.20
11415;BME280;5763;42.714;23.244;2022-11-15T04:16:06;95047.09;;;7.25;73.91
11415;BME280;5763;42.714;23.244;2022-11-15T04:18:32;95038.56;;;7.23;74.35
11415;BME280;5763;42.714;23.244;2022-11-15T04:20:59;95048.47;;;7.33;74.34
11415;BME280;5763;42.714;23.244;2022-11-15T04:23:59;95047.44;;;7.27;74.74
11415;BME280;5763;42.714;23.244;2022-11-15T04:26:38;95042.69;;;7.31;74.92
11415;BME280;5763;42.714;23.244;2022-11-15T04:29:05;95035.72;;;7.30;75.14
11415;BME280;5763;42.714;23.244;2022-11-15T04:31:49;95042.47;;;7.42;74.87
11415;BME280;5763;42.714;23.244;2022-11-15T04:34:16;95044.47;;;7.57;74.89
11415;BME280;5763;42.714;23.244;2022-11-15T04:36:43;95045.31;;;7.54;74.56
11415;BME280;5763;42.714;23.244;2022-11-15T04:39:28;95052.66;;;7.57;74.86
11415;BME280;5763;42.714;23.244;2022-11-15T04:41:55;95043.38;;;7.55;75.47
11415;BME280;5763;42.714;23.244;2022-11-15T04:44:22;95046.88;;;7.55;75.60
11415;BME280;5763;42.714;23.244;2022-11-15T04:46:49;95043.44;;;7.51;75.89
11415;BME280;5763;42.714;23.244;2022-11-15T04:49:16;95046.00;;;7.58;75.44
11415;BME280;5763;42.714;23.244;2022-11-15T04:51:42;95051.03;;;7.60;75.23
11415;BME280;5763;42.714;23.244;2022-11-15T04:54:09;95053.19;;;7.68;75.30
11415;BME280;5763;42.714;23.244;2022-11-15T04:56:37;95052.16;;;7.62;75.14
11415;BME280;5763;42.714;23.244;2022-11-15T04:59:04;95047.72;;;7.68;75.17
11415;BME280;5763;42.714;23.244;2022-11-15T05:01:31;95058.47;;;7.75;74.74
11415;BME280;5763;42.714;23.244;2022-11-15T05:03:58;95051.50;;;7.74;75.11
11415;BME280;5763;42.714;23.244;2022-11-15T05:06:42;95061.56;;;7.77;75.39
11415;BME280;5763;42.714;23.244;2022-11-15T05:09:09;95048.44;;;7.72;75.59
11415;BME280;5763;42.714;23.244;2022-11-15T05:11:37;95048.44;;;7.72;75.68
11415;BME280;5763;42.714;23.244;2022-11-15T05:14:04;95049.75;;;7.64;76.19
11415;BME280;5763;42.714;23.244;2022-11-15T05:16:31;95052.31;;;7.55;75.73
11415;BME280;5763;42.714;23.244;2022-11-15T05:18:58;95041.41;;;7.55;76.17
11415;BME280;5763;42.714;23.244;2022-11-15T05:21:25;95039.69;;;7.45;76.05
11415;BME280;5763;42.714;23.244;2022-11-15T05:23:51;95041.72;;;7.41;76.44
11415;BME280;5763;42.714;23.244;2022-11-15T05:26:19;95033.78;;;7.47;76.11
11415;BME280;5763;42.714;23.244;2022-11-15T05:28:52;95042.94;;;7.56;76.06
11415;BME280;5763;42.714;23.244;2022-11-15T05:31:19;95036.31;;;7.57;75.57
11415;BME280;5763;42.714;23.244;2022-11-15T05:33:46;95040.22;;;7.56;75.71
11415;BME280;5763;42.714;23.244;2022-11-15T05:36:17;95043.16;;;7.46;75.76
11415;BME280;5763;42.714;23.244;2022-11-15T05:38:46;95040.84;;;7.44;75.36
11415;BME280;5763;42.714;23.244;2022-11-15T05:41:15;95040.59;;;7.39;75.50
11415;BME280;5763;42.714;23.244;2022-11-15T05:43:43;95035.47;;;7.41;74.90
11415;BME280;5763;42.714;23.244;2022-11-15T05:46:12;95042.91;;;7.40;75.39
11415;BME280;5763;42.714;23.244;2022-11-15T05:48:41;95035.72;;;7.30;74.90
11415;BME280;5763;42.714;23.244;2022-11-15T05:51:12;95049.66;;;7.32;75.37
11415;BME280;5763;42.714;23.244;2022-11-15T05:53:42;95055.81;;;7.36;75.24
11415;BME280;5763;42.714;23.244;2022-11-15T05:56:10;95059.50;;;7.46;74.96
11415;BME280;5763;42.714;23.244;2022-11-15T05:58:37;95055.66;;;7.43;75.08
11415;BME280;5763;42.714;23.244;2022-11-15T06:01:04;95050.50;;;7.49;74.61
11415;BME280;5763;42.714;23.244;2022-11-15T06:03:32;95061.72;;;7.51;75.16
11415;BME280;5763;42.714;23.244;2022-11-15T06:05:59;95065.44;;;7.60;74.86
11415;BME280;5763;42.714;23.244;2022-11-15T06:08:27;95057.25;;;7.60;74.88
11415;BME280;5763;42.714;23.244;2022-11-15T06:10:53;95058.03;;;7.41;75.75
11415;BME280;5763;42.714;23.244;2022-11-15T06:13:20;95057.19;;;7.44;76.03
11415;BME280;5763;42.714;23.244;2022-11-15T06:15:47;95064.31;;;7.58;75.38
11415;BME280;5763;42.714;23.244;2022-11-15T06:18:14;95036.88;;;7.49;75.06
11415;BME280;5763;42.714;23.244;2022-11-15T06:20:42;95050.53;;;7.65;75.07
11415;BME280;5763;42.714;23.244;2022-11-15T06:23:10;95055.06;;;7.71;75.33
11415;BME280;5763;42.714;23.244;2022-11-15T06:25:39;95058.81;;;7.77;75.10
11415;BME280;5763;42.714;23.244;2022-11-15T06:28:07;95061.06;;;7.82;75.32
11415;BME280;5763;42.714;23.244;2022-11-15T06:30:36;95055.75;;;7.75;76.03
11415;BME280;5763;42.714;23.244;2022-11-15T06:33:05;95052.88;;;7.82;76.35
11415;BME280;5763;42.714;23.244;2022-11-15T06:35:35;95057.56;;;7.82;76.30
11415;BME280;5763;42.714;23.244;2022-11-15T06:38:08;95059.34;;;7.88;76.56
11415;BME280;5763;42.714;23.244;2022-11-15T06:40:38;95058.94;;;7.90;76.18
11415;BME280;5763;42.714;23.244;2022-11-15T06:43:06;95055.78;;;7.91;76.22
11415;BME280;5763;42.714;23.244;2022-11-15T06:45:34;95054.84;;;7.98;76.43
11415;BME280;5763;42.714;23.244;2022-11-15T06:48:03;95054.00;;;8.01;76.55
11415;BME280;5763;42.714;23.244;2022-11-15T06:50:32;95045.22;;;7.93;76.24
11415;BME280;5763;42.714;23.244;2022-11-15T06:53:06;95045.84;;;8.01;76.24
11415;BME280;5763;42.714;23.244;2022-11-15T06:55:34;95044.56;;;8.05;76.14
11415;BME280;5763;42.714;23.244;2022-11-15T06:58:02;95045.75;;;8.04;76.46
11415;BME280;5763;42.714;23.244;2022-11-15T07:00:31;95042.69;;;8.02;76.14
11415;BME280;5763;42.714;23.244;2022-11-15T07:03:00;95047.28;;;8.05;75.84
11415;BME280;5763;42.714;23.244;2022-11-15T07:05:29;95045.16;;;8.13;75.76
11415;BME280;5763;42.714;23.244;2022-11-15T07:07:58;95047.28;;;8.05;76.49
11415;BME280;5763;42.714;23.244;2022-11-15T07:10:28;95047.50;;;7.79;77.44
11415;BME280;5763;42.714;23.244;2022-11-15T07:12:57;95044.34;;;7.80;77.42
11415;BME280;5763;42.714;23.244;2022-11-15T07:15:26;95045.09;;;7.65;78.07
11415;BME280;5763;42.714;23.244;2022-11-15T07:17:54;95044.09;;;7.75;77.92
11415;BME280;5763;42.714;23.244;2022-11-15T07:20:23;95033.28;;;7.71;77.40
11415;BME280;5763;42.714;23.244;2022-11-15T07:22:55;95048.69;;;7.78;77.78
11415;BME280;5763;42.714;23.244;2022-11-15T07:25:29;95056.63;;;7.88;77.76
11415;BME280;5763;42.714;23.244;2022-11-15T07:28:01;95048.38;;;7.92;77.15
11415;BME280;5763;42.714;23.244;2022-11-15T07:30:29;95046.06;;;7.90;77.41
11415;BME280;5763;42.714;23.244;2022-11-15T07:32:59;95059.84;;;7.83;77.49
11415;BME280;5763;42.714;23.244;2022-11-15T07:35:28;95046.69;;;7.62;77.96
11415;BME280;5763;42.714;23.244;2022-11-15T07:37:57;95049.00;;;7.64;78.30
11415;BME280;5763;42.714;23.244;2022-11-15T07:40:26;95055.91;;;7.68;78.28
11415;BME280;5763;42.714;23.244;2022-11-15T07:43:02;95053.09;;;7.72;78.38
11415;BME280;5763;42.714;23.244;2022-11-15T07:45:31;95049.78;;;7.80;77.60
11415;BME280;5763;42.714;23.244;2022-11-15T07:48:01;95047.63;;;7.91;77.64
11415;BME280;5763;42.714;23.244;2022-11-15T07:50:29;95058.44;;;7.95;77.51
11415;BME280;5763;42.714;23.244;2022-11-15T07:52:59;95050.91;;;7.83;77.82
11415;BME280;5763;42.714;23.244;2022-11-15T07:55:28;95050.16;;;7.82;77.94
11415;BME280;5763;42.714;23.244;2022-11-15T07:58:02;95050.56;;;7.81;78.01
11415;BME280;5763;42.714;23.244;2022-11-15T08:00:31;95042.16;;;7.91;77.69
11415;BME280;5763;42.714;23.244;2022-11-15T08:03:04;95049.47;;;7.94;78.06
11415;BME280;5763;42.714;23.244;2022-11-15T08:05:36;95046.06;;;7.90;78.95
11415;BME280;5763;42.714;23.244;2022-11-15T08:08:06;95050.88;;;8.02;78.20
11415;BME280;5763;42.714;23.244;2022-11-15T08:10:39;95040.13;;;8.11;77.77
11415;BME280;5763;42.714;23.244;2022-11-15T08:13:11;95024.63;;;8.08;78.58
11415;BME280;5763;42.714;23.244;2022-11-15T08:15:40;95038.78;;;8.19;78.23
11415;BME280;5763;42.714;23.244;2022-11-15T08:18:12;95037.38;;;8.31;76.93
11415;BME280;5763;42.714;23.244;2022-11-15T08:20:42;95032.75;;;8.28;77.12
11415;BME280;5763;42.714;23.244;2022-11-15T08:23:11;95025.66;;;8.14;77.81
11415;BME280;5763;42.714;23.244;2022-11-15T08:25:40;95033.81;;;7.98;78.46
11415;BME280;5763;42.714;23.244;2022-11-15T08:28:10;95022.84;;;8.02;78.98
11415;BME280;5763;42.714;23.244;2022-11-15T08:30:40;95027.97;;;8.16;78.09
11415;BME280;5763;42.714;23.244;2022-11-15T08:33:12;95021.69;;;8.35;77.10
11415;BME280;5763;42.714;23.244;2022-11-15T08:35:41;95020.91;;;8.34;77.28
11415;BME280;5763;42.714;23.244;2022-11-15T08:38:12;95028.34;;;8.50;76.94
11415;BME280;5763;42.714;23.244;2022-11-15T08:40:40;95017.97;;;8.57;76.30
11415;BME280;5763;42.714;23.244;2022-11-15T08:43:10;95025.41;;;8.57;77.00
11415;BME280;5763;42.714;23.244;2022-11-15T08:45:39;94983.00;;;8.40;76.41
11415;BME280;5763;42.714;23.244;2022-11-15T08:48:07;95022.78;;;8.53;76.73
11415;BME280;5763;42.714;23.244;2022-11-15T08:50:36;95013.00;;;8.40;77.67
11415;BME280;5763;42.714;23.244;2022-11-15T08:53:05;95003.19;;;8.42;77.49
11415;BME280;5763;42.714;23.244;2022-11-15T08:55:37;95005.94;;;8.42;77.84
11415;BME280;5763;42.714;23.244;2022-11-15T08:58:06;94997.72;;;8.58;77.35
11415;BME280;5763;42.714;23.244;2022-11-15T09:00:36;94998.88;;;8.73;76.58
11415;BME280;5763;42.714;23.244;2022-11-15T09:03:05;95005.25;;;8.83;75.84
11415;BME280;5763;42.714;23.244;2022-11-15T09:05:36;94996.34;;;8.50;76.56
11415;BME280;5763;42.714;23.244;2022-11-15T09:08:05;94996.13;;;8.45;77.63
11415;BME280;5763;42.714;23.244;2022-11-15T09:10:33;94996.94;;;8.58;76.96
11415;BME280;5763;42.714;23.244;2022-11-15T09:13:02;94988.72;;;8.74;76.75
11415;BME280;5763;42.714;23.244;2022-11-15T09:15:31;94987.25;;;8.85;76.24
11415;BME280;5763;42.714;23.244;2022-11-15T09:18:01;94983.03;;;8.97;75.53
11415;BME280;5763;42.714;23.244;2022-11-15T09:20:30;94982.94;;;9.00;75.54
11415;BME280;5763;42.714;23.244;2022-11-15T09:23:00;94979.13;;;9.10;75.33
11415;BME280;5763;42.714;23.244;2022-11-15T09:25:29;94974.56;;;8.79;75.47
11415;BME280;5763;42.714;23.244;2022-11-15T09:27:57;94967.72;;;8.87;75.05
11415;BME280;5763;42.714;23.244;2022-11-15T09:30:25;94969.66;;;8.86;75.23
11415;BME280;5763;42.714;23.244;2022-11-15T09:32:53;94960.00;;;8.69;75.50
11415;BME280;5763;42.714;23.244;2022-11-15T09:35:24;94963.25;;;8.64;76.03
11415;BME280;5763;42.714;23.244;2022-11-15T09:37:53;94957.28;;;8.69;76.09
11415;BME280;5763;42.714;23.244;2022-11-15T09:40:21;94964.00;;;8.81;75.72
11415;BME280;5763;42.714;23.244;2022-11-15T09:43:05;94954.53;;;8.98;74.91
11415;BME280;5763;42.714;23.244;2022-11-15T09:45:41;94945.94;;;9.12;74.78
11415;BME280;5763;42.714;23.244;2022-11-15T09:51:14;94943.41;;;9.05;74.40
11415;BME280;5763;42.714;23.244;2022-11-15T09:53:55;94936.88;;;9.15;74.04
11415;BME280;5763;42.714;23.244;2022-11-15T09:56:28;94930.97;;;9.04;74.09
11415;BME280;5763;42.714;23.244;2022-11-15T09:59:10;94930.31;;;9.12;74.05
11415;BME280;5763;42.714;23.244;2022-11-15T10:01:47;94929.50;;;9.28;73.50
11415;BME280;5763;42.714;23.244;2022-11-15T10:04:16;94923.78;;;9.22;73.46
11415;BME280;5763;42.714;23.244;2022-11-15T10:06:47;94925.31;;;9.36;73.25
11415;BME280;5763;42.714;23.244;2022-11-15T10:09:20;94923.16;;;9.43;73.51
11415;BME280;5763;42.714;23.244;2022-11-15T10:11:50;94921.72;;;9.26;73.91
11415;BME280;5763;42.714;23.244;2022-11-15T10:14:20;94926.28;;;9.04;74.84
11415;BME280;5763;42.714;23.244;2022-11-15T10:17:02;94923.53;;;8.92;75.57
11415;BME280;5763;42.714;23.244;2022-11-15T10:19:36;94897.66;;;8.96;75.66
11415;BME280;5763;42.714;23.244;2022-11-15T10:22:19;94897.81;;;9.18;74.92
11415;BME280;5763;42.714;23.244;2022-11-15T10:24:52;94913.66;;;9.35;74.31
11415;BME280;5763;42.714;23.244;2022-11-15T10:27:25;94903.47;;;9.23;74.32
11415;BME280;5763;42.714;23.244;2022-11-15T10:29:52;94888.31;;;9.35;74.01
11415;BME280;5763;42.714;23.244;2022-11-15T10:32:21;94885.25;;;9.58;72.78
11415;BME280;5763;42.714;23.244;2022-11-15T10:34:48;94881.72;;;9.82;72.51
11415;BME280;5763;42.714;23.244;2022-11-15T10:37:27;94881.81;;;10.04;71.06
11415;BME280;5763;42.714;23.244;2022-11-15T10:40:04;94856.81;;;10.27;70.34
11415;BME280;5763;42.714;23.244;2022-11-15T10:42:31;94855.44;;;10.65;69.05
11415;BME280;5763;42.714;23.244;2022-11-15T10:44:58;94869.75;;;10.91;67.82
11415;BME280;5763;42.714;23.244;2022-11-15T10:47:27;94863.06;;;11.22;67.01
11415;BME280;5763;42.714;23.244;2022-11-15T10:49:58;94850.09;;;11.44;65.61
11415;BME280;5763;42.714;23.244;2022-11-15T10:52:28;94852.25;;;11.58;65.47
11415;BME280;5763;42.714;23.244;2022-11-15T10:54:59;94849.69;;;12.21;62.90
11415;BME280;5763;42.714;23.244;2022-11-15T10:57:30;94856.06;;;13.08;59.99
11415;BME280;5763;42.714;23.244;2022-11-15T11:00:00;94844.81;;;13.71;57.12
11415;BME280;5763;42.714;23.244;2022-11-15T11:02:34;94836.47;;;14.13;56.16
11415;BME280;5763;42.714;23.244;2022-11-15T11:05:03;94830.22;;;14.74;54.10
11415;BME280;5763;42.714;23.244;2022-11-15T11:07:33;94823.06;;;15.34;52.57
11415;BME280;5763;42.714;23.244;2022-11-15T11:10:05;94822.22;;;15.97;49.93
11415;BME280;5763;42.714;23.244;2022-11-15T11:12:43;94815.97;;;16.37;48.00
11415;BME280;5763;42.714;23.244;2022-11-15T11:15:12;94811.97;;;16.58;47.47
11415;BME280;5763;42.714;23.244;2022-11-15T11:17:51;94810.25;;;16.40;46.65
11415;BME280;5763;42.714;23.244;2022-11-15T11:20:26;94806.94;;;16.36;47.35
11415;BME280;5763;42.714;23.244;2022-11-15T11:23:32;94803.03;;;16.88;45.85
11415;BME280;5763;42.714;23.244;2022-11-15T11:26:13;94797.03;;;17.47;44.61
11415;BME280;5763;42.714;23.244;2022-11-15T11:28:48;94793.78;;;17.85;43.90
11415;BME280;5763;42.714;23.244;2022-11-15T11:31:32;94793.44;;;17.72;43.21
11415;BME280;5763;42.714;23.244;2022-11-15T11:34:12;94786.25;;;17.49;43.75
11415;BME280;5763;42.714;23.244;2022-11-15T11:36:47;94781.41;;;17.44;43.49
11415;BME280;5763;42.714;23.244;2022-11-15T11:39:24;94773.88;;;17.44;43.95
11415;BME280;5763;42.714;23.244;2022-11-15T11:42:03;94757.38;;;18.02;42.25
11415;BME280;5763;42.714;23.244;2022-11-15T11:44:41;94754.13;;;18.63;40.55
11415;BME280;5763;42.714;23.244;2022-11-15T11:47:15;94749.59;;;18.65;40.34
11415;BME280;5763;42.714;23.244;2022-11-15T11:49:49;94748.63;;;18.96;39.41
11415;BME280;5763;42.714;23.244;2022-11-15T11:52:18;94742.63;;;19.41;38.11
11415;BME280;5763;42.714;23.244;2022-11-15T11:54:58;94747.91;;;19.23;38.43
11415;BME280;5763;42.714;23.244;2022-11-15T11:57:33;94734.53;;;19.10;38.54
11415;BME280;5763;42.714;23.244;2022-11-15T12:00:04;94741.31;;;19.81;37.14
11415;BME280;5763;42.714;23.244;2022-11-15T12:02:36;94731.22;;;20.97;35.24
11415;BME280;5763;42.714;23.244;2022-11-15T12:05:10;94729.41;;;21.64;33.64
11415;BME280;5763;42.714;23.244;2022-11-15T12:07:40;94720.31;;;22.36;32.47
11415;BME280;5763;42.714;23.244;2022-11-15T12:10:19;94711.31;;;23.17;30.99
11415;BME280;5763;42.714;23.244;2022-11-15T12:12:54;94709.09;;;23.47;30.34
11415;BME280;5763;42.714;23.244;2022-11-15T12:15:24;94705.59;;;23.59;29.81
11415;BME280;5763;42.714;23.244;2022-11-15T12:17:54;94704.78;;;23.77;29.60
11415;BME280;5763;42.714;23.244;2022-11-15T12:20:23;94705.69;;;23.54;29.92
11415;BME280;5763;42.714;23.244;2022-11-15T12:22:54;94687.19;;;23.51;29.85
11415;BME280;5763;42.714;23.244;2022-11-15T12:25:29;94696.75;;;23.42;29.89
11415;BME280;5763;42.714;23.244;2022-11-15T12:28:00;94694.09;;;23.63;29.55
11415;BME280;5763;42.714;23.244;2022-11-15T12:30:46;94685.84;;;23.83;29.17
11415;BME280;5763;42.714;23.244;2022-11-15T12:33:40;94653.94;;;23.92;29.20
11415;BME280;5763;42.714;23.244;2022-11-15T12:36:10;94694.06;;;24.07;29.13
11415;BME280;5763;42.714;23.244;2022-11-15T12:38:55;94685.38;;;23.22;30.40
11415;BME280;5763;42.714;23.244;2022-11-15T12:41:27;94688.50;;;23.00;30.85
11415;BME280;5763;42.714;23.244;2022-11-15T12:43:54;94675.53;;;22.28;31.63
11415;BME280;5763;42.714;23.244;2022-11-15T12:47:04;94680.41;;;21.26;33.19
11415;BME280;5763;42.714;23.244;2022-11-15T12:49:49;94666.78;;;20.47;34.41
11415;BME280;5763;42.714;23.244;2022-11-15T12:52:16;94673.78;;;20.13;35.24
11415;BME280;5763;42.714;23.244;2022-11-15T12:54:55;94664.63;;;19.56;36.29
11415;BME280;5763;42.714;23.244;2022-11-15T12:57:40;94668.19;;;18.74;38.14
11415;BME280;5763;42.714;23.244;2022-11-15T13:03:24;94656.47;;;17.56;41.13
11415;BME280;5763;42.714;23.244;2022-11-15T13:06:03;94658.06;;;17.31;41.80
11415;BME280;5763;42.714;23.244;2022-11-15T13:08:43;94662.84;;;16.94;43.10
11415;BME280;5763;42.714;23.244;2022-11-15T13:11:44;94666.53;;;16.86;43.31
11415;BME280;5763;42.714;23.244;2022-11-15T13:14:43;94655.66;;;16.46;44.40
11415;BME280;5763;42.714;23.244;2022-11-15T13:17:33;94643.03;;;16.19;45.26
11415;BME280;5763;42.714;23.244;2022-11-15T13:20:21;94650.28;;;15.91;45.88
11415;BME280;5763;42.714;23.244;2022-11-15T13:22:51;94638.97;;;15.89;46.20
11415;BME280;5763;42.714;23.244;2022-11-15T13:25:53;94634.31;;;15.75;46.51
11415;BME280;5763;42.714;23.244;2022-11-15T13:28:31;94642.09;;;15.57;47.23
11415;BME280;5763;42.714;23.244;2022-11-15T13:31:16;94638.09;;;15.58;47.27
11415;BME280;5763;42.714;23.244;2022-11-15T13:33:47;94626.44;;;15.48;47.89
11415;BME280;5763;42.714;23.244;2022-11-15T13:36:19;94625.03;;;15.38;48.01
11415;BME280;5763;42.714;23.244;2022-11-15T13:38:55;94641.25;;;15.31;48.19
11415;BME280;5763;42.714;23.244;2022-11-15T13:41:26;94626.25;;;15.17;48.66
11415;BME280;5763;42.714;23.244;2022-11-15T13:43:55;94631.38;;;14.90;49.55
11415;BME280;5763;42.714;23.244;2022-11-15T13:46:26;94627.28;;;14.36;50.95